sensor_id;sensor_type;location;lat;lon;timestamp;P1;durP1;ratioP1;P2;durP2;ratioP2
63536;SDS011;49686;51.880;5.632;2023-06-26T14:34:24;20.40;;;4.85;;
63536;SDS011;49686;51.880;5.632;2023-06-26T14:36:50;5.35;;;1.10;;
63536;SDS011;49686;51.880;5.632;2023-06-26T14:39:17;4.28;;;1.35;;
63536;SDS011;49686;51.880;5.632;2023-06-26T14:41:45;3.15;;;0.93;;
63536;SDS011;49686;51.880;5.632;2023-06-26T14:44:12;2.10;;;0.90;;
63536;SDS011;49686;51.880;5.632;2023-06-26T14:46:39;3.38;;;1.27;;
63536;SDS011;49686;51.880;5.632;2023-06-26T14:49:06;3.05;;;0.80;;
63536;SDS011;49686;51.880;5.632;2023-06-26T14:51:35;2.50;;;0.75;;
63536;SDS011;49686;51.880;5.632;2023-06-26T14:54:02;2.00;;;0.90;;
63536;SDS011;49686;51.880;5.632;2023-06-26T14:56:29;2.78;;;0.90;;
63536;SDS011;49686;51.880;5.632;2023-06-26T14:58:55;2.90;;;1.00;;
63536;SDS011;49686;51.880;5.632;2023-06-26T15:01:22;1.33;;;0.70;;
63536;SDS011;49686;51.880;5.632;2023-06-26T15:03:49;2.88;;;0.80;;
63536;SDS011;49686;51.880;5.632;2023-06-26T15:06:16;2.33;;;1.10;;
63536;SDS011;49686;51.880;5.632;2023-06-26T15:08:44;1.50;;;0.93;;
63536;SDS011;49686;51.880;5.632;2023-06-26T15:11:11;2.65;;;1.33;;
63536;SDS011;49686;51.880;5.632;2023-06-26T15:13:38;1.67;;;0.98;;
63536;SDS011;49686;51.880;5.632;2023-06-26T15:16:05;6.93;;;1.48;;
63536;SDS011;49686;51.880;5.632;2023-06-26T15:18:32;3.17;;;0.80;;
63536;SDS011;49686;51.880;5.632;2023-06-26T15:20:58;1.20;;;0.73;;
63536;SDS011;49686;51.880;5.632;2023-06-26T15:23:25;3.95;;;0.98;;
63536;SDS011;49686;51.880;5.632;2023-06-26T15:25:53;2.63;;;0.98;;
63536;SDS011;49686;51.880;5.632;2023-06-26T15:28:20;2.38;;;0.98;;
63536;SDS011;49686;51.880;5.632;2023-06-26T15:30:47;3.03;;;1.20;;
63536;SDS011;49686;51.880;5.632;2023-06-26T15:33:14;2.47;;;0.98;;
63536;SDS011;49686;51.880;5.632;2023-06-26T15:35:41;1.50;;;1.00;;
63536;SDS011;49686;51.880;5.632;2023-06-26T15:38:08;2.85;;;1.10;;
63536;SDS011;49686;51.880;5.632;2023-06-26T15:40:35;1.10;;;0.73;;
63536;SDS011;49686;51.880;5.632;2023-06-26T15:43:03;2.00;;;0.80;;
63536;SDS011;49686;51.880;5.632;2023-06-26T15:45:30;2.53;;;0.93;;
63536;SDS011;49686;51.880;5.632;2023-06-26T15:47:57;2.08;;;0.80;;
63536;SDS011;49686;51.880;5.632;2023-06-26T15:50:24;2.50;;;1.27;;
63536;SDS011;49686;51.880;5.632;2023-06-26T15:52:51;3.03;;;0.77;;
63536;SDS011;49686;51.880;5.632;2023-06-26T15:55:17;2.80;;;0.85;;
63536;SDS011;49686;51.880;5.632;2023-06-26T15:57:44;1.92;;;0.90;;
63536;SDS011;49686;51.880;5.632;2023-06-26T16:00:13;2.45;;;0.80;;
63536;SDS011;49686;51.880;5.632;2023-06-26T16:02:40;2.17;;;0.80;;
63536;SDS011;49686;51.880;5.632;2023-06-26T16:05:08;1.25;;;0.90;;
63536;SDS011;49686;51.880;5.632;2023-06-26T16:07:35;2.28;;;1.25;;
63536;SDS011;49686;51.880;5.632;2023-06-26T16:10:21;2.72;;;1.00;;
63536;SDS011;49686;51.880;5.632;2023-06-26T16:12:48;3.00;;;1.08;;
63536;SDS011;49686;51.880;5.632;2023-06-26T16:15:16;1.63;;;0.95;;
63536;SDS011;49686;51.880;5.632;2023-06-26T16:17:43;1.50;;;0.90;;
63536;SDS011;49686;51.880;5.632;2023-06-26T16:20:10;6.60;;;1.60;;
63536;SDS011;49686;51.880;5.632;2023-06-26T16:22:37;3.35;;;0.90;;
63536;SDS011;49686;51.880;5.632;2023-06-26T16:25:05;1.35;;;0.90;;
63536;SDS011;49686;51.880;5.632;2023-06-26T16:27:32;3.30;;;1.13;;
63536;SDS011;49686;51.880;5.632;2023-06-26T16:29:59;3.50;;;1.10;;
63536;SDS011;49686;51.880;5.632;2023-06-26T16:32:27;3.95;;;1.00;;
63536;SDS011;49686;51.880;5.632;2023-06-26T16:34:54;2.95;;;0.93;;
63536;SDS011;49686;51.880;5.632;2023-06-26T16:37:21;2.03;;;1.10;;
63536;SDS011;49686;51.880;5.632;2023-06-26T16:39:48;2.65;;;1.50;;
63536;SDS011;49686;51.880;5.632;2023-06-26T16:42:16;1.33;;;0.80;;
63536;SDS011;49686;51.880;5.632;2023-06-26T16:44:43;0.98;;;0.90;;
63536;SDS011;49686;51.880;5.632;2023-06-26T16:47:10;2.17;;;0.88;;
63536;SDS011;49686;51.880;5.632;2023-06-26T16:49:38;2.55;;;0.82;;
63536;SDS011;49686;51.880;5.632;2023-06-26T16:52:05;2.60;;;1.35;;
63536;SDS011;49686;51.880;5.632;2023-06-26T16:54:33;3.67;;;1.00;;
63536;SDS011;49686;51.880;5.632;2023-06-26T16:56:59;2.33;;;1.13;;
63536;SDS011;49686;51.880;5.632;2023-06-26T16:59:26;3.55;;;1.00;;
63536;SDS011;49686;51.880;5.632;2023-06-26T17:01:53;2.08;;;1.00;;
63536;SDS011;49686;51.880;5.632;2023-06-26T17:04:20;4.20;;;1.25;;
63536;SDS011;49686;51.880;5.632;2023-06-26T17:06:49;2.90;;;0.80;;
63536;SDS011;49686;51.880;5.632;2023-06-26T17:09:16;2.55;;;1.40;;
63536;SDS011;49686;51.880;5.632;2023-06-26T17:11:42;3.97;;;1.38;;
63536;SDS011;49686;51.880;5.632;2023-06-26T17:14:09;2.25;;;1.25;;
63536;SDS011;49686;51.880;5.632;2023-06-26T17:16:36;5.78;;;1.25;;
63536;SDS011;49686;51.880;5.632;2023-06-26T17:19:03;2.50;;;0.88;;
63536;SDS011;49686;51.880;5.632;2023-06-26T17:21:30;3.30;;;1.25;;
63536;SDS011;49686;51.880;5.632;2023-06-26T17:23:58;3.17;;;1.00;;
63536;SDS011;49686;51.880;5.632;2023-06-26T17:26:25;1.10;;;1.00;;
63536;SDS011;49686;51.880;5.632;2023-06-26T17:28:51;1.38;;;0.90;;
63536;SDS011;49686;51.880;5.632;2023-06-26T17:31:18;1.88;;;1.10;;
63536;SDS011;49686;51.880;5.632;2023-06-26T17:33:45;3.70;;;1.10;;
63536;SDS011;49686;51.880;5.632;2023-06-26T17:36:12;3.95;;;1.10;;
63536;SDS011;49686;51.880;5.632;2023-06-26T17:38:39;1.30;;;1.00;;
63536;SDS011;49686;51.880;5.632;2023-06-26T17:41:07;2.60;;;1.05;;
63536;SDS011;49686;51.880;5.632;2023-06-26T17:43:34;4.10;;;1.20;;
63536;SDS011;49686;51.880;5.632;2023-06-26T17:46:01;2.22;;;1.00;;
63536;SDS011;49686;51.880;5.632;2023-06-26T17:48:28;4.97;;;1.63;;
63536;SDS011;49686;51.880;5.632;2023-06-26T17:50:55;1.33;;;0.90;;
63536;SDS011;49686;51.880;5.632;2023-06-26T17:53:21;1.75;;;0.90;;
63536;SDS011;49686;51.880;5.632;2023-06-26T17:55:48;3.05;;;1.17;;
63536;SDS011;49686;51.880;5.632;2023-06-26T17:58:16;5.13;;;1.33;;
63536;SDS011;49686;51.880;5.632;2023-06-26T18:00:43;3.92;;;1.42;;
63536;SDS011;49686;51.880;5.632;2023-06-26T18:03:10;2.53;;;1.23;;
63536;SDS011;49686;51.880;5.632;2023-06-26T18:05:37;2.20;;;0.90;;
63536;SDS011;49686;51.880;5.632;2023-06-26T18:08:04;2.90;;;1.10;;
63536;SDS011;49686;51.880;5.632;2023-06-26T18:10:31;2.55;;;1.25;;
63536;SDS011;49686;51.880;5.632;2023-06-26T18:12:58;3.63;;;1.10;;
63536;SDS011;49686;51.880;5.632;2023-06-26T18:15:27;2.40;;;0.90;;
63536;SDS011;49686;51.880;5.632;2023-06-26T18:17:54;4.47;;;1.25;;
63536;SDS011;49686;51.880;5.632;2023-06-26T18:20:21;2.70;;;1.42;;
63536;SDS011;49686;51.880;5.632;2023-06-26T18:22:47;2.50;;;1.10;;
63536;SDS011;49686;51.880;5.632;2023-06-26T18:25:14;2.72;;;1.10;;
63536;SDS011;49686;51.880;5.632;2023-06-26T18:27:41;2.63;;;1.50;;
63536;SDS011;49686;51.880;5.632;2023-06-26T18:30:08;3.47;;;1.30;;
63536;SDS011;49686;51.880;5.632;2023-06-26T18:32:37;2.13;;;1.50;;
63536;SDS011;49686;51.880;5.632;2023-06-26T18:35:04;1.65;;;1.08;;
63536;SDS011;49686;51.880;5.632;2023-06-26T18:37:31;3.05;;;1.67;;
63536;SDS011;49686;51.880;5.632;2023-06-26T18:39:58;2.85;;;1.20;;
63536;SDS011;49686;51.880;5.632;2023-06-26T18:42:25;2.22;;;1.00;;
63536;SDS011;49686;51.880;5.632;2023-06-26T18:44:52;2.28;;;1.67;;
63536;SDS011;49686;51.880;5.632;2023-06-26T18:47:18;4.07;;;1.10;;
63536;SDS011;49686;51.880;5.632;2023-06-26T18:49:47;2.58;;;1.20;;
63536;SDS011;49686;51.880;5.632;2023-06-26T18:52:13;2.28;;;1.20;;
63536;SDS011;49686;51.880;5.632;2023-06-26T18:54:40;4.68;;;1.33;;
63536;SDS011;49686;51.880;5.632;2023-06-26T18:57:07;5.03;;;1.40;;
63536;SDS011;49686;51.880;5.632;2023-06-26T18:59:34;3.45;;;1.52;;
63536;SDS011;49686;51.880;5.632;2023-06-26T19:02:01;5.80;;;1.40;;
63536;SDS011;49686;51.880;5.632;2023-06-26T19:04:30;4.00;;;1.50;;
63536;SDS011;49686;51.880;5.632;2023-06-26T19:06:58;4.40;;;1.30;;
63536;SDS011;49686;51.880;5.632;2023-06-26T19:09:25;2.88;;;1.13;;
63536;SDS011;49686;51.880;5.632;2023-06-26T19:11:52;3.63;;;1.23;;
63536;SDS011;49686;51.880;5.632;2023-06-26T19:14:19;3.30;;;1.50;;
63536;SDS011;49686;51.880;5.632;2023-06-26T19:16:45;2.65;;;1.20;;
63536;SDS011;49686;51.880;5.632;2023-06-26T19:19:12;4.88;;;1.20;;
63536;SDS011;49686;51.880;5.632;2023-06-26T19:21:39;4.15;;;1.25;;
63536;SDS011;49686;51.880;5.632;2023-06-26T19:24:08;1.83;;;1.40;;
63536;SDS011;49686;51.880;5.632;2023-06-26T19:26:35;3.90;;;1.50;;
63536;SDS011;49686;51.880;5.632;2023-06-26T19:29:02;4.07;;;1.20;;
63536;SDS011;49686;51.880;5.632;2023-06-26T19:32:38;2.40;;;1.50;;
63536;SDS011;49686;51.880;5.632;2023-06-26T19:35:05;3.72;;;1.30;;
63536;SDS011;49686;51.880;5.632;2023-06-26T19:37:33;4.88;;;1.40;;
63536;SDS011;49686;51.880;5.632;2023-06-26T19:40:11;3.00;;;1.77;;
63536;SDS011;49686;51.880;5.632;2023-06-26T19:42:38;2.97;;;1.30;;
63536;SDS011;49686;51.880;5.632;2023-06-26T19:45:05;3.35;;;1.75;;
63536;SDS011;49686;51.880;5.632;2023-06-26T19:47:33;5.32;;;1.70;;
63536;SDS011;49686;51.880;5.632;2023-06-26T19:50:01;2.40;;;1.25;;
63536;SDS011;49686;51.880;5.632;2023-06-26T19:52:28;3.92;;;1.85;;
63536;SDS011;49686;51.880;5.632;2023-06-26T19:54:54;3.88;;;1.52;;
63536;SDS011;49686;51.880;5.632;2023-06-26T19:57:21;4.40;;;1.80;;
63536;SDS011;49686;51.880;5.632;2023-06-26T19:59:48;3.45;;;1.30;;
63536;SDS011;49686;51.880;5.632;2023-06-26T20:02:15;2.85;;;1.20;;
63536;SDS011;49686;51.880;5.632;2023-06-26T20:04:41;4.25;;;1.85;;
63536;SDS011;49686;51.880;5.632;2023-06-26T20:07:10;2.80;;;1.25;;
63536;SDS011;49686;51.880;5.632;2023-06-26T20:09:37;4.22;;;1.30;;
63536;SDS011;49686;51.880;5.632;2023-06-26T20:12:04;3.15;;;1.50;;
63536;SDS011;49686;51.880;5.632;2023-06-26T20:14:32;5.03;;;2.00;;
63536;SDS011;49686;51.880;5.632;2023-06-26T20:16:59;4.75;;;1.58;;
63536;SDS011;49686;51.880;5.632;2023-06-26T20:19:25;3.03;;;1.52;;
63536;SDS011;49686;51.880;5.632;2023-06-26T20:21:52;2.58;;;1.60;;
63536;SDS011;49686;51.880;5.632;2023-06-26T20:24:21;2.83;;;1.40;;
63536;SDS011;49686;51.880;5.632;2023-06-26T20:26:47;2.95;;;1.40;;
63536;SDS011;49686;51.880;5.632;2023-06-26T20:29:14;2.55;;;1.70;;
63536;SDS011;49686;51.880;5.632;2023-06-26T20:31:41;3.47;;;1.35;;
63536;SDS011;49686;51.880;5.632;2023-06-26T20:34:08;6.50;;;1.48;;
63536;SDS011;49686;51.880;5.632;2023-06-26T20:36:35;4.13;;;1.50;;
63536;SDS011;49686;51.880;5.632;2023-06-26T20:39:01;4.90;;;2.00;;
63536;SDS011;49686;51.880;5.632;2023-06-26T20:41:30;2.40;;;1.48;;
63536;SDS011;49686;51.880;5.632;2023-06-26T20:43:57;7.30;;;1.63;;
63536;SDS011;49686;51.880;5.632;2023-06-26T20:46:25;4.38;;;1.50;;
63536;SDS011;49686;51.880;5.632;2023-06-26T20:48:52;6.00;;;1.80;;
63536;SDS011;49686;51.880;5.632;2023-06-26T20:51:19;6.65;;;1.80;;
63536;SDS011;49686;51.880;5.632;2023-06-26T20:53:50;6.40;;;1.80;;
63536;SDS011;49686;51.880;5.632;2023-06-26T20:56:17;2.47;;;1.60;;
63536;SDS011;49686;51.880;5.632;2023-06-26T20:58:46;2.95;;;1.58;;
63536;SDS011;49686;51.880;5.632;2023-06-26T21:01:12;4.97;;;1.80;;
63536;SDS011;49686;51.880;5.632;2023-06-26T21:03:39;2.78;;;1.70;;
63536;SDS011;49686;51.880;5.632;2023-06-26T21:06:06;6.10;;;1.85;;
63536;SDS011;49686;51.880;5.632;2023-06-26T21:08:33;3.65;;;1.77;;
63536;SDS011;49686;51.880;5.632;2023-06-26T21:11:00;5.80;;;1.92;;
63536;SDS011;49686;51.880;5.632;2023-06-26T21:13:27;5.28;;;1.80;;
63536;SDS011;49686;51.880;5.632;2023-06-26T21:15:55;5.28;;;2.08;;
63536;SDS011;49686;51.880;5.632;2023-06-26T21:18:22;5.40;;;2.20;;
63536;SDS011;49686;51.880;5.632;2023-06-26T21:20:49;5.28;;;2.10;;
63536;SDS011;49686;51.880;5.632;2023-06-26T21:23:15;3.30;;;2.08;;
63536;SDS011;49686;51.880;5.632;2023-06-26T21:25:42;5.30;;;2.20;;
63536;SDS011;49686;51.880;5.632;2023-06-26T21:28:09;7.22;;;2.40;;
63536;SDS011;49686;51.880;5.632;2023-06-26T21:30:36;3.97;;;2.00;;
63536;SDS011;49686;51.880;5.632;2023-06-26T21:33:04;5.20;;;2.10;;
63536;SDS011;49686;51.880;5.632;2023-06-26T21:35:31;4.15;;;2.17;;
63536;SDS011;49686;51.880;5.632;2023-06-26T21:38:09;2.85;;;1.98;;
63536;SDS011;49686;51.880;5.632;2023-06-26T21:40:36;7.78;;;2.40;;
63536;SDS011;49686;51.880;5.632;2023-06-26T21:43:03;4.07;;;2.30;;
63536;SDS011;49686;51.880;5.632;2023-06-26T21:45:30;6.22;;;2.90;;
63536;SDS011;49686;51.880;5.632;2023-06-26T21:47:57;5.30;;;2.38;;
63536;SDS011;49686;51.880;5.632;2023-06-26T21:50:25;5.35;;;2.40;;
63536;SDS011;49686;51.880;5.632;2023-06-26T21:52:52;4.60;;;2.50;;
63536;SDS011;49686;51.880;5.632;2023-06-26T21:55:19;4.03;;;2.45;;
63536;SDS011;49686;51.880;5.632;2023-06-26T21:57:46;7.43;;;2.80;;
63536;SDS011;49686;51.880;5.632;2023-06-26T22:00:12;5.30;;;3.08;;
63536;SDS011;49686;51.880;5.632;2023-06-26T22:02:39;4.20;;;2.90;;
63536;SDS011;49686;51.880;5.632;2023-06-26T22:05:07;6.10;;;2.38;;
63536;SDS011;49686;51.880;5.632;2023-06-26T22:07:35;5.00;;;2.22;;
63536;SDS011;49686;51.880;5.632;2023-06-26T22:10:20;5.25;;;2.50;;
63536;SDS011;49686;51.880;5.632;2023-06-26T22:12:47;4.45;;;2.38;;
63536;SDS011;49686;51.880;5.632;2023-06-26T22:15:14;6.45;;;2.85;;
63536;SDS011;49686;51.880;5.632;2023-06-26T22:17:47;4.60;;;2.83;;
63536;SDS011;49686;51.880;5.632;2023-06-26T22:20:15;5.65;;;2.80;;
63536;SDS011;49686;51.880;5.632;2023-06-26T22:22:44;6.30;;;3.20;;
63536;SDS011;49686;51.880;5.632;2023-06-26T22:27:41;5.20;;;2.80;;
63536;SDS011;49686;51.880;5.632;2023-06-26T22:30:10;5.30;;;3.05;;
63536;SDS011;49686;51.880;5.632;2023-06-26T22:32:37;6.32;;;3.28;;
63536;SDS011;49686;51.880;5.632;2023-06-26T22:35:05;6.72;;;3.70;;
63536;SDS011;49686;51.880;5.632;2023-06-26T22:37:32;6.55;;;3.40;;
63536;SDS011;49686;51.880;5.632;2023-06-26T22:40:00;7.63;;;4.40;;
63536;SDS011;49686;51.880;5.632;2023-06-26T22:42:27;5.55;;;3.55;;
63536;SDS011;49686;51.880;5.632;2023-06-26T22:44:53;4.82;;;3.33;;
63536;SDS011;49686;51.880;5.632;2023-06-26T22:47:20;6.03;;;3.60;;
63536;SDS011;49686;51.880;5.632;2023-06-26T22:49:47;7.18;;;3.90;;
63536;SDS011;49686;51.880;5.632;2023-06-26T22:52:14;7.32;;;4.00;;
63536;SDS011;49686;51.880;5.632;2023-06-26T22:54:42;5.63;;;3.92;;
63536;SDS011;49686;51.880;5.632;2023-06-26T22:57:10;8.60;;;4.15;;
63536;SDS011;49686;51.880;5.632;2023-06-26T22:59:37;7.78;;;4.30;;
63536;SDS011;49686;51.880;5.632;2023-06-26T23:02:04;7.57;;;5.03;;
63536;SDS011;49686;51.880;5.632;2023-06-26T23:04:31;8.68;;;4.07;;
63536;SDS011;49686;51.880;5.632;2023-06-26T23:06:58;7.80;;;4.05;;
63536;SDS011;49686;51.880;5.632;2023-06-26T23:09:25;9.18;;;3.85;;
63536;SDS011;49686;51.880;5.632;2023-06-26T23:11:52;5.88;;;4.43;;
63536;SDS011;49686;51.880;5.632;2023-06-26T23:14:20;8.00;;;3.90;;
63536;SDS011;49686;51.880;5.632;2023-06-26T23:16:48;6.60;;;4.13;;
63536;SDS011;49686;51.880;5.632;2023-06-26T23:19:15;8.43;;;4.22;;
63536;SDS011;49686;51.880;5.632;2023-06-26T23:21:42;7.05;;;4.30;;
63536;SDS011;49686;51.880;5.632;2023-06-26T23:24:09;7.15;;;4.15;;
63536;SDS011;49686;51.880;5.632;2023-06-26T23:26:36;9.38;;;4.03;;
63536;SDS011;49686;51.880;5.632;2023-06-26T23:29:03;7.07;;;4.35;;
63536;SDS011;49686;51.880;5.632;2023-06-26T23:31:31;7.72;;;4.28;;
63536;SDS011;49686;51.880;5.632;2023-06-26T23:33:58;7.30;;;4.18;;
63536;SDS011;49686;51.880;5.632;2023-06-26T23:36:24;9.10;;;4.63;;
63536;SDS011;49686;51.880;5.632;2023-06-26T23:38:51;7.68;;;4.32;;
63536;SDS011;49686;51.880;5.632;2023-06-26T23:41:18;6.30;;;4.28;;
63536;SDS011;49686;51.880;5.632;2023-06-26T23:43:45;6.65;;;4.72;;
63536;SDS011;49686;51.880;5.632;2023-06-26T23:46:12;7.95;;;4.60;;
63536;SDS011;49686;51.880;5.632;2023-06-26T23:48:40;9.13;;;4.80;;
63536;SDS011;49686;51.880;5.632;2023-06-26T23:51:06;7.10;;;4.40;;
63536;SDS011;49686;51.880;5.632;2023-06-26T23:53:33;7.22;;;5.15;;
63536;SDS011;49686;51.880;5.632;2023-06-26T23:56:00;10.25;;;4.97;;
63536;SDS011;49686;51.880;5.632;2023-06-26T23:58:27;8.73;;;4.93;;
